Time;durP1;ratioP1;P1;durP2;ratioP2;P2;SDS_P1;SDS_P2;PMS_P1;PMS_P2;Temp;Humidity;BMP_temperature;BMP_pressure;BME280_temperature;BME280_humidity;BME280_pressure;Samples;Min_cycle;Max_cycle;Signal;HPM_P1;HPM_P2
2022/02/20 00:02:00;;;;;;;57.53;16.25;;;8.70;50.60;;;;;;4975590;28;20031;-63
2022/02/20 00:04:26;;;;;;;119.78;34.78;;;8.70;50.70;;;;;;4958732;28;20381;-66
2022/02/20 00:06:52;;;;;;;83.85;23.80;;;8.70;50.70;;;;;;4974492;28;20027;-65
2022/02/20 00:09:18;;;;;;;76.63;26.67;;;8.70;50.80;;;;;;4992234;28;20072;-64
2022/02/20 00:11:44;;;;;;;107.60;51.20;;;8.70;50.70;;;;;;4991666;28;20026;-64
2022/02/20 00:14:10;;;;;;;44.45;23.52;;;8.60;50.80;;;;;;4975024;28;20049;-65
2022/02/20 00:16:37;;;;;;;31.45;14.27;;;8.60;51.00;;;;;;4974253;28;20533;-64
2022/02/20 00:19:03;;;;;;;19.25;8.30;;;8.50;51.10;;;;;;4992565;28;20030;-64
2022/02/20 00:21:29;;;;;;;14.82;7.15;;;8.50;51.40;;;;;;4974551;28;20031;-65
2022/02/20 00:23:54;;;;;;;17.33;5.68;;;8.40;51.50;;;;;;4958049;28;20027;-65
2022/02/20 00:26:20;;;;;;;15.32;6.38;;;8.40;51.70;;;;;;4974742;28;20096;-65
2022/02/20 00:28:46;;;;;;;15.35;5.70;;;8.40;51.90;;;;;;4973201;28;20409;-64
2022/02/20 00:31:12;;;;;;;12.90;4.85;;;8.30;52.10;;;;;;4992211;28;20023;-65
2022/02/20 00:33:38;;;;;;;15.70;5.07;;;8.30;52.20;;;;;;4991829;28;20208;-64
2022/02/20 00:36:04;;;;;;;14.35;5.18;;;8.30;52.10;;;;;;4992324;28;20358;-64
2022/02/20 00:38:29;;;;;;;11.68;4.57;;;8.30;52.10;;;;;;4992497;28;20049;-64
2022/02/20 00:40:55;;;;;;;9.63;4.05;;;8.20;52.00;;;;;;4973900;28;20043;-64
2022/02/20 00:43:21;;;;;;;10.68;4.50;;;8.20;52.00;;;;;;4991578;28;20092;-66
2022/02/20 00:45:47;;;;;;;10.82;3.88;;;8.20;51.90;;;;;;4974393;28;20150;-64
2022/02/20 00:48:17;;;;;;;11.90;4.65;;;8.10;52.00;;;;;;4995514;28;20054;-65
2022/02/20 00:50:43;;;;;;;10.68;4.60;;;8.00;52.40;;;;;;4977650;28;20489;-64
2022/02/20 00:53:09;;;;;;;11.68;4.63;;;7.90;52.90;;;;;;4978183;28;20029;-64
2022/02/20 00:55:35;;;;;;;16.67;4.60;;;7.80;52.90;;;;;;4995451;28;20398;-65
2022/02/20 00:58:02;;;;;;;9.70;3.88;;;7.80;52.80;;;;;;4995152;28;20109;-65
2022/02/20 01:00:28;;;;;;;11.95;4.18;;;7.90;52.60;;;;;;4995165;28;20049;-65
2022/02/20 01:02:54;;;;;;;14.25;4.53;;;7.80;52.50;;;;;;4994575;28;20106;-63
2022/02/20 01:05:38;;;;;;;11.70;4.30;;;7.70;52.50;;;;;;4994914;28;20117;-65
2022/02/20 01:08:23;;;;;;;14.85;4.80;;;7.70;52.80;;;;;;4977517;28;20026;-65
2022/02/20 01:10:49;;;;;;;10.02;4.10;;;7.70;52.80;;;;;;4977165;28;20061;-65
2022/02/20 01:13:15;;;;;;;12.68;4.70;;;7.80;52.70;;;;;;4994578;28;20068;-65
2022/02/20 01:15:41;;;;;;;12.93;4.00;;;7.80;53.40;;;;;;4976481;28;20489;-65
2022/02/20 01:18:08;;;;;;;14.57;5.30;;;7.80;52.90;;;;;;4977201;28;20125;-66
2022/02/20 01:20:34;;;;;;;12.15;4.15;;;7.80;52.80;;;;;;4995111;28;20042;-64
2022/02/20 01:23:00;;;;;;;16.88;5.95;;;7.80;52.40;;;;;;4977083;28;20226;-65
2022/02/20 01:25:26;;;;;;;10.30;4.22;;;7.70;52.80;;;;;;4993447;28;20121;-65
2022/02/20 01:27:52;;;;;;;13.27;4.80;;;7.70;52.80;;;;;;4976607;28;20057;-64
2022/02/20 01:30:18;;;;;;;12.10;4.22;;;7.70;52.90;;;;;;4977299;28;20034;-64
2022/02/20 01:32:44;;;;;;;12.50;4.75;;;7.60;53.00;;;;;;4994177;28;20027;-63
2022/02/20 01:35:10;;;;;;;16.02;4.82;;;7.60;53.20;;;;;;4977189;28;20070;-65
2022/02/20 01:37:36;;;;;;;10.70;4.22;;;7.60;53.30;;;;;;4977137;28;20027;-65
2022/02/20 01:40:02;;;;;;;15.43;4.38;;;7.70;53.00;;;;;;4993634;28;20037;-64
2022/02/20 01:42:28;;;;;;;10.85;3.90;;;7.60;53.00;;;;;;4994473;28;20054;-64
2022/02/20 01:44:54;;;;;;;11.82;4.25;;;7.50;53.10;;;;;;4994133;28;20470;-64
2022/02/20 01:47:20;;;;;;;13.82;4.40;;;7.50;53.30;;;;;;4994574;28;20028;-65
2022/02/20 01:49:46;;;;;;;13.13;3.80;;;7.50;53.30;;;;;;4993868;28;20026;-64
2022/02/20 01:52:12;;;;;;;11.80;3.97;;;7.50;53.90;;;;;;4994104;28;20026;-64
2022/02/20 01:54:38;;;;;;;10.52;3.97;;;7.50;53.10;;;;;;4994527;28;20043;-65
2022/02/20 01:57:05;;;;;;;10.77;3.80;;;7.50;53.00;;;;;;4993222;28;20038;-65
2022/02/20 01:59:31;;;;;;;13.32;4.20;;;7.50;52.90;;;;;;4976668;28;20030;-63
2022/02/20 02:01:57;;;;;;;11.32;4.25;;;7.40;52.80;;;;;;4993646;28;20085;-64
2022/02/20 02:04:23;;;;;;;11.88;4.18;;;7.40;53.00;;;;;;4994009;28;20030;-64
2022/02/20 02:06:49;;;;;;;11.88;4.15;;;7.30;53.00;;;;;;4976290;28;20042;-64
2022/02/20 02:09:18;;;;;;;17.80;7.70;;;7.30;53.60;;;;;;4994216;28;20034;-64
2022/02/20 02:11:45;;;;;;;22.88;9.73;;;7.20;54.20;;;;;;4993226;28;20055;-64
2022/02/20 02:14:12;;;;;;;17.77;6.75;;;7.10;54.20;;;;;;4994134;28;20066;-65
2022/02/20 02:16:37;;;;;;;14.32;6.28;;;7.10;54.30;;;;;;4994321;28;20031;-63
2022/02/20 02:19:04;;;;;;;29.65;13.88;;;7.10;54.40;;;;;;4993445;28;20454;-64
2022/02/20 02:21:29;;;;;;;25.02;12.60;;;7.00;54.50;;;;;;4976238;28;20026;-65
2022/02/20 02:23:55;;;;;;;19.67;9.38;;;7.00;54.50;;;;;;4992035;28;20030;-64
2022/02/20 02:26:23;;;;;;;46.13;23.38;;;7.00;54.40;;;;;;4994165;28;20045;-64
2022/02/20 02:28:48;;;;;;;22.48;10.77;;;7.00;54.30;;;;;;4974943;28;20125;-64
2022/02/20 02:31:19;;;;;;;17.65;8.15;;;7.10;54.30;;;;;;4993402;28;20476;-64
2022/02/20 02:33:45;;;;;;;18.38;8.65;;;7.10;54.10;;;;;;4993636;28;20192;-64
2022/02/20 02:36:11;;;;;;;19.45;9.77;;;7.10;54.00;;;;;;4993622;28;20033;-64
2022/02/20 02:38:38;;;;;;;15.73;7.72;;;7.20;53.80;;;;;;4976040;28;20030;-64
2022/02/20 02:41:06;;;;;;;12.35;5.38;;;7.20;53.50;;;;;;4991557;28;20346;-64
2022/02/20 02:43:38;;;;;;;11.60;4.50;;;7.20;53.30;;;;;;4993426;28;20061;-64
2022/02/20 02:46:05;;;;;;;11.18;3.47;;;7.20;53.10;;;;;;4992637;28;20038;-65
2022/02/20 02:48:30;;;;;;;13.82;3.65;;;7.20;52.90;;;;;;4976075;28;20136;-63
2022/02/20 02:50:59;;;;;;;8.77;3.08;;;7.20;52.70;;;;;;4991644;28;20046;-64
2022/02/20 02:53:25;;;;;;;9.40;2.80;;;7.20;52.40;;;;;;4993364;28;20125;-65
2022/02/20 02:55:51;;;;;;;9.50;3.13;;;7.30;51.90;;;;;;4992927;28;20042;-64
2022/02/20 02:58:19;;;;;;;9.00;3.42;;;7.30;51.80;;;;;;4992769;28;20037;-64
2022/02/20 03:00:45;;;;;;;8.50;2.75;;;7.30;51.50;;;;;;4993390;28;20022;-64
2022/02/20 03:03:10;;;;;;;8.10;3.38;;;7.30;51.40;;;;;;4992024;28;20018;-65
2022/02/20 03:05:36;;;;;;;9.55;3.15;;;7.20;51.60;;;;;;4975047;28;20034;-64
2022/02/20 03:08:02;;;;;;;5.95;3.05;;;7.20;51.80;;;;;;4974788;28;20027;-64
2022/02/20 03:10:29;;;;;;;10.85;4.00;;;7.10;52.50;;;;;;4991905;28;20034;-64
2022/02/20 03:12:55;;;;;;;7.85;3.38;;;7.10;52.80;;;;;;4974787;28;20026;-64
2022/02/20 03:15:21;;;;;;;9.48;3.65;;;7.10;53.20;;;;;;4992861;28;20050;-64
2022/02/20 03:17:47;;;;;;;10.70;3.47;;;7.10;53.40;;;;;;4991194;28;20110;-65
2022/02/20 03:20:12;;;;;;;13.60;4.05;;;7.00;53.70;;;;;;4991061;28;20027;-64
2022/02/20 03:22:38;;;;;;;12.38;4.22;;;7.00;54.00;;;;;;4975415;28;20038;-64
2022/02/20 03:25:05;;;;;;;9.95;3.47;;;7.10;53.90;;;;;;4974763;28;20034;-64
2022/02/20 03:27:31;;;;;;;9.43;3.65;;;7.10;53.40;;;;;;4992108;28;20030;-65
2022/02/20 03:29:57;;;;;;;10.82;3.83;;;7.10;53.40;;;;;;4974477;28;20076;-65
2022/02/20 03:32:22;;;;;;;6.88;3.53;;;7.10;53.40;;;;;;4992850;28;20386;-63
2022/02/20 03:34:48;;;;;;;10.68;3.83;;;7.00;53.40;;;;;;4992367;28;20037;-64
2022/02/20 03:37:14;;;;;;;9.43;3.70;;;7.00;53.30;;;;;;4992277;28;20452;-64
2022/02/20 03:39:39;;;;;;;6.72;2.42;;;7.00;53.20;;;;;;4993204;28;20026;-64
2022/02/20 03:42:05;;;;;;;7.65;3.20;;;7.10;53.00;;;;;;4992115;28;20034;-64
2022/02/20 03:44:31;;;;;;;8.82;2.90;;;7.10;52.50;;;;;;4992551;28;20030;-64
2022/02/20 03:46:57;;;;;;;7.88;3.45;;;7.20;52.50;;;;;;4992037;28;20473;-63
2022/02/20 03:49:23;;;;;;;9.65;3.40;;;7.10;52.90;;;;;;4975134;28;20389;-64
2022/02/20 03:51:48;;;;;;;8.13;2.97;;;7.00;52.80;;;;;;4974263;28;20027;-64
2022/02/20 03:54:14;;;;;;;8.15;3.00;;;7.10;52.60;;;;;;4974122;28;20085;-64
2022/02/20 03:56:40;;;;;;;7.57;2.90;;;7.10;52.30;;;;;;4992091;28;20054;-65
2022/02/20 03:59:05;;;;;;;10.18;2.90;;;7.00;52.00;;;;;;4991662;28;20101;-64
2022/02/20 04:01:31;;;;;;;7.55;2.17;;;7.00;52.10;;;;;;4992661;28;20520;-65
2022/02/20 04:03:57;;;;;;;5.55;2.67;;;7.00;51.80;;;;;;4974308;28;20130;-65
2022/02/20 04:06:23;;;;;;;8.63;2.83;;;7.00;51.70;;;;;;4992227;28;20037;-64
2022/02/20 04:08:49;;;;;;;7.68;2.47;;;7.00;51.70;;;;;;4992179;28;20033;-64
2022/02/20 04:11:14;;;;;;;7.13;2.80;;;7.00;51.50;;;;;;4991547;28;20261;-65
2022/02/20 04:13:40;;;;;;;7.97;2.50;;;7.10;51.20;;;;;;4992290;28;20425;-64
2022/02/20 04:16:06;;;;;;;7.45;2.40;;;7.30;50.80;;;;;;4974486;28;20026;-65
2022/02/20 04:18:31;;;;;;;7.53;2.30;;;7.40;50.30;;;;;;4975213;28;20022;-64
2022/02/20 04:20:58;;;;;;;6.82;2.15;;;7.50;49.70;;;;;;4975528;28;20062;-63
2022/02/20 04:23:29;;;;;;;6.38;2.05;;;7.60;49.40;;;;;;4995987;28;20104;-64
2022/02/20 04:26:00;;;;;;;8.00;2.58;;;7.70;48.80;;;;;;4995399;28;20042;-63
2022/02/20 04:28:26;;;;;;;5.22;2.42;;;7.70;48.50;;;;;;4966965;28;20146;-64
2022/02/20 04:30:52;;;;;;;5.07;2.00;;;7.70;48.50;;;;;;4956171;29;20038;-64
2022/02/20 04:33:17;;;;;;;9.15;2.70;;;7.70;48.70;;;;;;4939147;29;20031;-64
2022/02/20 04:35:43;;;;;;;9.60;2.28;;;7.80;48.80;;;;;;4957168;28;20023;-64
2022/02/20 04:38:09;;;;;;;5.57;1.90;;;7.80;48.30;;;;;;4955618;29;20050;-64
2022/02/20 04:40:34;;;;;;;5.55;2.13;;;7.90;48.10;;;;;;4956137;29;20038;-64
2022/02/20 04:43:00;;;;;;;7.38;2.55;;;7.90;47.30;;;;;;4955729;28;20031;-64
2022/02/20 04:45:26;;;;;;;5.22;2.30;;;8.00;47.20;;;;;;4956644;28;20054;-64
2022/02/20 04:47:51;;;;;;;8.82;3.50;;;8.20;46.80;;;;;;4956019;29;20058;-64
2022/02/20 04:50:17;;;;;;;7.10;4.28;;;8.20;46.60;;;;;;4956538;28;20078;-63
2022/02/20 04:52:43;;;;;;;7.57;2.10;;;8.30;46.40;;;;;;4956811;28;20042;-64
2022/02/20 04:55:09;;;;;;;13.70;7.28;;;8.40;46.20;;;;;;4954953;29;20558;-63
2022/02/20 04:57:37;;;;;;;47.03;25.60;;;8.50;46.20;;;;;;4956615;28;20034;-63
2022/02/20 05:00:08;;;;;;;39.80;24.45;;;8.60;46.10;;;;;;4955945;29;20086;-64
2022/02/20 05:02:34;;;;;;;25.10;14.60;;;8.60;45.90;;;;;;4956339;29;20036;-64
2022/02/20 05:05:00;;;;;;;19.23;9.95;;;8.60;45.90;;;;;;4956345;29;20030;-63
2022/02/20 05:07:25;;;;;;;16.63;9.95;;;8.70;45.80;;;;;;4956701;28;20078;-64
2022/02/20 05:09:51;;;;;;;9.68;4.82;;;8.70;45.70;;;;;;4955516;29;20459;-64
2022/02/20 05:12:17;;;;;;;9.13;6.30;;;8.80;45.60;;;;;;4955396;28;20069;-65
2022/02/20 05:14:42;;;;;;;8.45;5.25;;;8.90;45.40;;;;;;4955094;29;20031;-65
2022/02/20 05:17:11;;;;;;;6.15;2.30;;;8.90;45.10;;;;;;4955365;28;20023;-64
2022/02/20 05:19:37;;;;;;;4.75;1.80;;;9.00;44.70;;;;;;4955036;29;20042;-64
2022/02/20 05:22:03;;;;;;;5.53;1.85;;;9.00;44.40;;;;;;4954590;29;20034;-63
2022/02/20 05:24:29;;;;;;;7.72;2.05;;;9.10;44.20;;;;;;4956523;28;20387;-65
2022/02/20 05:26:55;;;;;;;4.85;1.60;;;9.20;43.90;;;;;;4955193;29;20050;-64
2022/02/20 05:29:20;;;;;;;8.30;1.70;;;9.20;43.40;;;;;;4954333;28;20056;-64
2022/02/20 05:31:46;;;;;;;7.20;1.88;;;9.20;44.00;;;;;;4955570;28;20023;-64
2022/02/20 05:34:12;;;;;;;6.97;1.75;;;9.20;44.50;;;;;;4954711;28;20041;-64
2022/02/20 05:36:38;;;;;;;6.80;2.00;;;9.20;45.10;;;;;;4956007;28;20031;-66
2022/02/20 05:39:03;;;;;;;4.50;2.03;;;9.30;45.30;;;;;;4955489;28;20030;-65
2022/02/20 05:41:29;;;;;;;8.13;2.05;;;9.30;45.80;;;;;;4954940;29;20034;-64
2022/02/20 05:43:55;;;;;;;8.60;1.75;;;9.40;45.90;;;;;;4954701;29;20126;-65
2022/02/20 05:46:21;;;;;;;4.72;1.67;;;9.40;46.10;;;;;;4953962;29;20417;-65
2022/02/20 05:48:46;;;;;;;7.05;2.03;;;9.40;47.00;;;;;;4954386;29;20043;-64
2022/02/20 05:51:13;;;;;;;4.55;1.90;;;9.40;47.60;;;;;;4953163;29;20027;-64
2022/02/20 05:53:38;;;;;;;7.75;2.20;;;9.40;47.90;;;;;;4955512;28;20114;-64
2022/02/20 05:56:05;;;;;;;9.15;2.42;;;9.40;48.10;;;;;;4955150;28;20102;-63
2022/02/20 05:58:32;;;;;;;8.77;2.00;;;9.40;48.20;;;;;;4954708;29;20032;-65
2022/02/20 06:00:58;;;;;;;7.38;1.85;;;9.40;48.40;;;;;;4954584;29;20031;-65
2022/02/20 06:03:24;;;;;;;7.85;2.03;;;9.40;48.70;;;;;;4954449;28;20027;-64
2022/02/20 06:05:49;;;;;;;5.88;1.80;;;9.40;49.10;;;;;;4955454;28;20426;-64
2022/02/20 06:08:15;;;;;;;7.93;2.28;;;9.40;49.40;;;;;;4953486;29;20031;-64
2022/02/20 06:10:41;;;;;;;7.57;1.90;;;9.30;49.70;;;;;;4953727;29;20115;-64
2022/02/20 06:13:07;;;;;;;8.35;2.00;;;9.20;49.80;;;;;;4954449;28;20585;-64
2022/02/20 06:15:33;;;;;;;6.00;2.20;;;9.30;49.90;;;;;;4954496;29;20027;-65
2022/02/20 06:17:59;;;;;;;7.10;1.90;;;9.20;50.20;;;;;;4953569;29;20494;-64
2022/02/20 06:20:25;;;;;;;6.72;1.73;;;9.20;51.50;;;;;;4953917;28;20082;-64
2022/02/20 06:22:53;;;;;;;7.43;1.75;;;9.10;52.30;;;;;;4955306;28;20019;-65
2022/02/20 06:25:19;;;;;;;5.22;2.22;;;9.00;53.10;;;;;;4953222;29;20027;-65
2022/02/20 06:27:45;;;;;;;6.15;1.70;;;9.10;53.00;;;;;;4959683;28;20054;-64
2022/02/20 06:30:11;;;;;;;5.03;1.70;;;9.10;53.30;;;;;;4993183;28;20461;-65
2022/02/20 06:32:37;;;;;;;4.38;1.70;;;9.10;53.40;;;;;;4976469;28;20026;-64
2022/02/20 06:35:03;;;;;;;7.35;1.80;;;9.10;54.20;;;;;;4993424;28;20080;-65
2022/02/20 06:37:29;;;;;;;4.90;2.10;;;9.10;54.30;;;;;;4991376;28;20034;-64
2022/02/20 06:39:55;;;;;;;4.68;1.60;;;9.20;54.40;;;;;;4993343;28;20038;-64
2022/02/20 06:42:20;;;;;;;6.20;1.65;;;9.20;55.20;;;;;;4975056;28;20509;-65
2022/02/20 06:44:46;;;;;;;4.97;1.70;;;9.10;55.60;;;;;;4975251;28;20128;-66
2022/02/20 06:47:12;;;;;;;4.55;1.73;;;9.10;56.00;;;;;;4992374;28;20026;-65
2022/02/20 06:49:38;;;;;;;4.43;1.80;;;9.10;56.30;;;;;;4992154;28;20599;-63
2022/02/20 06:52:04;;;;;;;5.05;1.67;;;9.10;56.20;;;;;;4992719;28;20026;-64
2022/02/20 06:54:30;;;;;;;3.47;1.50;;;9.10;56.50;;;;;;4973988;28;20022;-64
2022/02/20 06:56:57;;;;;;;4.22;1.60;;;9.10;56.40;;;;;;4992379;28;20385;-66
2022/02/20 06:59:25;;;;;;;5.45;1.83;;;9.10;56.80;;;;;;4991849;28;20035;-64
2022/02/20 07:01:51;;;;;;;2.85;1.35;;;9.10;56.70;;;;;;4975194;28;20039;-64
2022/02/20 07:04:17;;;;;;;3.85;1.30;;;9.20;56.60;;;;;;4991667;28;20100;-65
2022/02/20 07:06:44;;;;;;;4.75;1.40;;;9.30;56.60;;;;;;4992233;28;20113;-64
2022/02/20 07:09:10;;;;;;;3.45;1.10;;;9.30;57.40;;;;;;4991964;28;20030;-64
2022/02/20 07:11:37;;;;;;;3.40;1.42;;;9.30;56.90;;;;;;4992223;28;20038;-64
2022/02/20 07:14:04;;;;;;;3.45;1.17;;;9.30;57.00;;;;;;4992401;28;20539;-65
2022/02/20 07:16:31;;;;;;;4.28;1.30;;;9.30;57.10;;;;;;4991498;28;20038;-63
2022/02/20 07:18:56;;;;;;;3.30;1.50;;;9.30;57.30;;;;;;4992118;28;20429;-64
2022/02/20 07:21:24;;;;;;;3.05;1.50;;;9.30;57.30;;;;;;4973904;28;20581;-67
2022/02/20 07:23:50;;;;;;;2.67;1.50;;;9.30;57.50;;;;;;4991919;28;20046;-65
2022/02/20 07:26:16;;;;;;;6.53;1.38;;;9.40;57.60;;;;;;4973451;28;20041;-63
2022/02/20 07:28:42;;;;;;;4.30;1.60;;;9.40;57.40;;;;;;4991795;28;20054;-64
2022/02/20 07:31:09;;;;;;;3.72;1.48;;;9.30;57.80;;;;;;4974766;28;20038;-67
2022/02/20 07:33:35;;;;;;;4.85;1.50;;;9.20;58.40;;;;;;4991586;28;20034;-65
2022/02/20 07:36:00;;;;;;;3.70;1.40;;;9.20;58.40;;;;;;4974459;28;20031;-64
2022/02/20 07:38:26;;;;;;;3.83;1.40;;;9.20;58.40;;;;;;4991581;28;20026;-64
2022/02/20 07:40:52;;;;;;;3.45;1.50;;;9.30;58.30;;;;;;4974478;28;20026;-64
2022/02/20 07:43:18;;;;;;;3.15;1.30;;;9.40;58.80;;;;;;4973094;28;20046;-64
2022/02/20 07:45:43;;;;;;;3.97;1.60;;;9.40;58.00;;;;;;4992078;28;20428;-65
2022/02/20 07:48:09;;;;;;;3.30;1.55;;;9.50;57.90;;;;;;4974055;28;20062;-65
2022/02/20 07:50:37;;;;;;;3.88;1.50;;;9.60;57.70;;;;;;4973185;28;20121;-63
2022/02/20 07:53:05;;;;;;;3.92;1.55;;;9.60;57.70;;;;;;4974493;28;20496;-65
2022/02/20 07:55:32;;;;;;;5.65;1.90;;;9.60;57.60;;;;;;4990290;28;20034;-63
2022/02/20 07:58:01;;;;;;;2.67;1.48;;;9.60;57.60;;;;;;4995935;28;20096;-63
2022/02/20 08:00:35;;;;;;;4.63;1.50;;;9.70;57.70;;;;;;4995063;28;20018;-64
2022/02/20 08:03:04;;;;;;;3.65;1.73;;;9.80;57.40;;;;;;4978367;28;20117;-63
2022/02/20 08:05:30;;;;;;;3.40;1.58;;;9.80;57.90;;;;;;4994779;28;20374;-64
2022/02/20 08:07:56;;;;;;;4.82;1.75;;;10.10;56.80;;;;;;4994145;28;20042;-65
2022/02/20 08:10:23;;;;;;;3.00;1.52;;;10.10;56.40;;;;;;4995211;28;20369;-64
2022/02/20 08:12:48;;;;;;;5.45;1.55;;;10.00;56.40;;;;;;4994644;28;20363;-65
2022/02/20 08:15:14;;;;;;;3.83;1.70;;;10.10;56.50;;;;;;4977369;28;20076;-64
2022/02/20 08:17:46;;;;;;;3.97;2.38;;;10.10;56.30;;;;;;4977450;28;20179;-64
2022/02/20 08:20:14;;;;;;;4.45;2.72;;;10.70;56.30;;;;;;4961710;28;20073;-64
2022/02/20 08:22:41;;;;;;;5.40;2.30;;;12.00;52.40;;;;;;4994287;28;20023;-63
2022/02/20 08:25:08;;;;;;;5.63;2.40;;;12.60;50.40;;;;;;4994218;28;20045;-64
2022/02/20 08:27:36;;;;;;;4.50;1.92;;;12.70;49.50;;;;;;4993608;28;20106;-66
2022/02/20 08:30:04;;;;;;;5.32;1.98;;;12.50;49.80;;;;;;4977615;28;20022;-64
2022/02/20 08:32:34;;;;;;;4.80;1.88;;;12.40;49.70;;;;;;4993991;28;20232;-67
2022/02/20 08:35:03;;;;;;;3.53;1.50;;;12.20;50.80;;;;;;4976191;28;20073;-64
2022/02/20 08:37:29;;;;;;;6.75;1.88;;;11.90;50.70;;;;;;4961050;28;20487;-65
2022/02/20 08:39:55;;;;;;;4.10;1.73;;;11.80;51.00;;;;;;4976940;28;20386;-64
2022/02/20 08:42:21;;;;;;;4.28;1.77;;;11.70;51.10;;;;;;4994053;28;20062;-64
2022/02/20 08:44:48;;;;;;;4.82;1.83;;;11.60;51.10;;;;;;4976784;28;20510;-64
2022/02/20 08:47:14;;;;;;;4.30;1.58;;;11.50;51.40;;;;;;4993273;28;20034;-66
2022/02/20 08:49:40;;;;;;;4.07;2.08;;;11.50;51.50;;;;;;4993354;28;20034;-61
2022/02/20 08:52:06;;;;;;;4.13;1.88;;;11.40;51.50;;;;;;4977479;28;20027;-61
2022/02/20 08:54:32;;;;;;;5.40;1.70;;;11.30;51.70;;;;;;4977034;28;20080;-61
2022/02/20 08:56:59;;;;;;;3.83;2.25;;;11.20;52.10;;;;;;4994625;28;20034;-64
2022/02/20 08:59:25;;;;;;;5.53;1.65;;;11.30;52.00;;;;;;4994172;28;20026;-65
2022/02/20 09:01:54;;;;;;;5.57;1.70;;;11.30;51.50;;;;;;4977596;28;20029;-66
2022/02/20 09:04:20;;;;;;;3.15;1.55;;;11.40;51.70;;;;;;4993711;28;20080;-65
2022/02/20 09:06:47;;;;;;;3.95;1.95;;;11.60;51.30;;;;;;4993081;28;20034;-64
2022/02/20 09:09:13;;;;;;;4.28;1.77;;;11.60;51.20;;;;;;4994324;28;20031;-65
2022/02/20 09:11:39;;;;;;;6.57;2.28;;;11.50;51.40;;;;;;4993908;28;20022;-63
2022/02/20 09:14:06;;;;;;;4.00;1.80;;;11.60;51.40;;;;;;4976713;28;20083;-64
2022/02/20 09:16:32;;;;;;;5.82;2.20;;;11.80;51.20;;;;;;4993268;28;20030;-63
2022/02/20 09:19:03;;;;;;;3.83;1.63;;;11.80;51.20;;;;;;4994168;28;20037;-64
2022/02/20 09:21:30;;;;;;;4.85;2.05;;;11.90;50.70;;;;;;4961135;28;20031;-64
2022/02/20 09:23:57;;;;;;;4.97;1.98;;;11.90;50.30;;;;;;4994474;28;20034;-64
2022/02/20 09:26:23;;;;;;;5.88;2.10;;;12.00;50.70;;;;;;4993877;28;20030;-64
2022/02/20 09:28:50;;;;;;;4.10;1.60;;;12.10;50.30;;;;;;4994434;28;20046;-65
2022/02/20 09:31:16;;;;;;;4.50;1.80;;;12.10;50.10;;;;;;4994020;28;20030;-65
2022/02/20 09:33:41;;;;;;;3.08;1.85;;;12.10;50.00;;;;;;4976811;28;20034;-62
2022/02/20 09:36:08;;;;;;;5.15;1.58;;;12.30;49.80;;;;;;4994951;28;20041;-63
2022/02/20 09:38:36;;;;;;;3.95;1.70;;;12.40;49.40;;;;;;4976390;28;20350;-65
2022/02/20 09:41:05;;;;;;;7.15;1.90;;;12.40;49.40;;;;;;4976868;28;20025;-64
2022/02/20 09:43:35;;;;;;;3.28;1.80;;;12.20;49.60;;;;;;4993595;28;20066;-63
2022/02/20 09:46:01;;;;;;;3.90;1.77;;;12.20;49.70;;;;;;4994549;28;20026;-64
2022/02/20 09:48:28;;;;;;;6.13;1.80;;;12.10;49.90;;;;;;4993939;28;20036;-63
2022/02/20 09:50:54;;;;;;;5.70;2.08;;;12.10;49.80;;;;;;4976999;28;20417;-64
2022/02/20 09:53:20;;;;;;;3.17;1.77;;;12.00;50.00;;;;;;4976633;28;20026;-64
2022/02/20 09:55:47;;;;;;;3.08;1.73;;;12.00;50.20;;;;;;4994378;28;20022;-64
2022/02/20 09:58:15;;;;;;;3.35;1.60;;;12.10;49.90;;;;;;4994247;28;20094;-63
2022/02/20 10:01:03;;;;;;;4.53;1.90;;;12.10;50.10;;;;;;4976517;28;20019;-65
2022/02/20 10:03:31;;;;;;;4.65;1.88;;;12.10;49.90;;;;;;4993792;28;20026;-64
2022/02/20 10:05:58;;;;;;;3.15;1.55;;;12.20;49.50;;;;;;4976978;28;20034;-64
2022/02/20 10:08:24;;;;;;;5.25;1.80;;;12.30;49.10;;;;;;4993876;28;20022;-64
2022/02/20 10:10:50;;;;;;;5.25;2.00;;;12.40;49.10;;;;;;4994169;28;20027;-64
2022/02/20 10:13:26;;;;;;;3.42;1.80;;;12.50;48.80;;;;;;4976705;28;20018;-63
2022/02/20 10:15:54;;;;;;;7.88;2.00;;;12.70;48.40;;;;;;4994548;28;20018;-63
2022/02/20 10:18:21;;;;;;;4.68;1.80;;;12.90;48.00;;;;;;4993162;28;20022;-65
2022/02/20 10:20:58;;;;;;;5.80;1.85;;;12.90;48.10;;;;;;4993876;28;20018;-63
2022/02/20 10:23:24;;;;;;;4.75;2.00;;;12.90;47.60;;;;;;4993141;28;20053;-64
2022/02/20 10:25:49;;;;;;;3.35;1.77;;;12.80;47.90;;;;;;4994128;28;20026;-65
2022/02/20 10:28:15;;;;;;;3.63;1.73;;;12.90;48.00;;;;;;4993407;28;20038;-63
2022/02/20 10:30:42;;;;;;;3.22;1.52;;;12.90;48.00;;;;;;4993216;28;20084;-64
2022/02/20 10:33:16;;;;;;;3.22;2.00;;;13.00;47.80;;;;;;4993656;28;20034;-63
2022/02/20 10:35:43;;;;;;;5.03;2.35;;;13.20;48.00;;;;;;4975771;28;20018;-65
2022/02/20 10:38:14;;;;;;;3.15;1.92;;;13.30;47.10;;;;;;4973298;28;20023;-63
2022/02/20 10:40:47;;;;;;;5.10;1.95;;;13.40;47.00;;;;;;4992494;28;20294;-63
2022/02/20 10:43:33;;;;;;;3.72;1.80;;;13.40;46.90;;;;;;4973839;28;20041;-65
2022/02/20 10:46:14;;;;;;;4.32;2.03;;;13.60;46.30;;;;;;4975238;28;20039;-64
2022/02/20 10:48:42;;;;;;;5.40;1.95;;;13.60;46.30;;;;;;4992653;28;20035;-63
2022/02/20 10:51:09;;;;;;;4.25;1.75;;;13.50;46.10;;;;;;4993434;28;20026;-64
2022/02/20 10:53:35;;;;;;;4.93;2.20;;;13.50;46.60;;;;;;4992931;28;20031;-63
2022/02/20 10:56:03;;;;;;;3.80;1.73;;;13.60;46.50;;;;;;4991776;28;20023;-64
2022/02/20 10:58:32;;;;;;;4.05;1.77;;;13.50;45.90;;;;;;4974813;28;20476;-64
2022/02/20 11:01:03;;;;;;;3.38;1.50;;;13.60;45.40;;;;;;4974839;28;20473;-64
2022/02/20 11:03:31;;;;;;;4.30;2.05;;;13.50;45.00;;;;;;4974639;28;20038;-63
2022/02/20 11:05:58;;;;;;;4.85;1.42;;;13.50;45.10;;;;;;4990951;28;20026;-70
2022/02/20 11:08:29;;;;;;;4.22;1.83;;;13.40;45.20;;;;;;4974634;28;20105;-70
2022/02/20 11:10:56;;;;;;;4.38;1.70;;;13.30;45.30;;;;;;4992923;28;20109;-63
2022/02/20 11:13:23;;;;;;;5.80;1.92;;;13.20;45.50;;;;;;4992457;28;20045;-65
2022/02/20 11:15:51;;;;;;;2.97;1.70;;;13.10;46.10;;;;;;4992035;28;20105;-64
2022/02/20 11:18:22;;;;;;;3.63;1.42;;;13.10;46.30;;;;;;4992316;28;20033;-64
2022/02/20 11:20:58;;;;;;;4.93;1.60;;;13.10;46.70;;;;;;4991563;28;20476;-64
2022/02/20 11:23:26;;;;;;;4.55;1.40;;;13.10;46.90;;;;;;4988269;28;20058;-63
2022/02/20 11:25:53;;;;;;;3.67;1.40;;;13.20;46.90;;;;;;4991099;28;20072;-67
2022/02/20 11:28:19;;;;;;;4.60;1.83;;;13.20;46.40;;;;;;4963947;28;20494;-66
2022/02/20 11:30:45;;;;;;;2.75;1.60;;;13.20;46.40;;;;;;4951117;28;20023;-69
2022/02/20 11:33:13;;;;;;;6.53;1.60;;;13.30;46.50;;;;;;4953875;28;20395;-64
2022/02/20 11:35:43;;;;;;;4.75;1.65;;;13.40;46.20;;;;;;4952158;29;20032;-66
2022/02/20 11:38:25;;;;;;;5.05;1.95;;;13.50;45.90;;;;;;4952873;29;20023;-66
2022/02/20 11:40:55;;;;;;;6.68;2.38;;;13.60;45.60;;;;;;4953609;28;20103;-67
2022/02/20 11:43:36;;;;;;;5.20;1.83;;;13.70;45.50;;;;;;4953273;28;20024;-64
2022/02/20 11:46:30;;;;;;;5.15;1.80;;;13.90;44.80;;;;;;4953711;28;20438;-66
2022/02/20 11:49:02;;;;;;;4.95;2.13;;;13.90;44.70;;;;;;4952501;29;20103;-68
2022/02/20 11:51:31;;;;;;;6.88;1.80;;;13.90;44.60;;;;;;4953000;28;20035;-63
2022/02/20 11:54:16;;;;;;;4.45;1.80;;;13.80;44.70;;;;;;4953632;28;20027;-61
2022/02/20 11:56:43;;;;;;;2.80;1.55;;;13.90;44.40;;;;;;4951912;29;20030;-61
2022/02/20 11:59:18;;;;;;;5.25;1.60;;;13.80;44.60;;;;;;4953235;28;20246;-62
2022/02/20 12:02:14;;;;;;;3.40;1.60;;;13.60;44.70;;;;;;4951807;29;20039;-64
2022/02/20 12:04:52;;;;;;;2.53;1.38;;;13.50;45.10;;;;;;4953305;28;20035;-68
2022/02/20 12:07:28;;;;;;;4.68;1.50;;;13.60;44.60;;;;;;4953468;28;20090;-63
2022/02/20 12:10:28;;;;;;;4.22;1.50;;;13.50;44.70;;;;;;4952032;29;20040;-66
2022/02/20 12:13:09;;;;;;;4.72;1.42;;;13.60;44.80;;;;;;4952238;29;20027;-64
2022/02/20 12:15:40;;;;;;;4.03;1.70;;;13.70;44.00;;;;;;4951244;29;20027;-68
2022/02/20 12:18:12;;;;;;;4.32;1.40;;;13.80;44.00;;;;;;4952422;29;20042;-64
2022/02/20 12:20:49;;;;;;;4.38;1.63;;;13.90;43.50;;;;;;4951416;29;20039;-62
2022/02/20 12:23:27;;;;;;;5.50;1.65;;;13.80;43.90;;;;;;4953281;28;20534;-63
2022/02/20 12:25:54;;;;;;;3.58;1.50;;;13.70;44.10;;;;;;4953115;28;20090;-64
2022/02/20 12:28:32;;;;;;;3.28;1.40;;;13.70;44.40;;;;;;4968298;28;20122;-65
2022/02/20 12:31:07;;;;;;;3.03;1.60;;;13.60;44.60;;;;;;4991973;28;20033;-64
2022/02/20 12:33:36;;;;;;;5.00;1.67;;;13.60;44.80;;;;;;4991301;28;20047;-65
2022/02/20 12:36:05;;;;;;;3.42;1.63;;;13.70;45.10;;;;;;4992118;28;20121;-64
2022/02/20 12:38:32;;;;;;;3.35;1.55;;;13.80;45.00;;;;;;4991133;28;20065;-65
2022/02/20 12:40:59;;;;;;;4.80;1.73;;;13.80;44.90;;;;;;4991769;28;20061;-65
2022/02/20 12:43:25;;;;;;;5.85;1.75;;;13.80;44.60;;;;;;4994767;28;20027;-64
2022/02/20 12:45:51;;;;;;;4.35;1.60;;;13.90;44.60;;;;;;4995328;28;20034;-64
2022/02/20 12:48:18;;;;;;;4.13;1.80;;;14.00;44.00;;;;;;4995299;28;20058;-65
2022/02/20 12:50:47;;;;;;;5.85;2.00;;;13.90;44.60;;;;;;4977372;28;20465;-66
2022/02/20 12:53:18;;;;;;;3.25;1.67;;;13.80;44.30;;;;;;4995218;28;20039;-64